Terminal Aerodrome Forecast
Issued by NWS

Home | Current Version | Previous Version | Text Only | Print | Product List | Glossary Off
Versions: 1 2 3 4 5 6 7 8 9 10 11 12 13 14 15 16

000
FTUS42 KMHX 270300 AAA
TAFPGV
TAF AMD
KPGV 270356Z 2704/2724 33009G14KT P6SM OVC015
     FM270900 33010G18KT 5SM -SN SCT007 OVC015
     FM271600 34008KT P6SM OVC025
     FM272000 33008KT P6SM OVC050
      AMD LTD TO CLD VIS AND WIND=

USA.gov is the U.S. government's official web portal to all federal, state and local government web resources and services.